createdAt,value
2024-04-14T00:00:21.120Z,32.01
2024-04-14T00:01:21.114Z,32.04
2024-04-14T00:02:21.117Z,32.04
2024-04-14T00:03:21.192Z,32.02
2024-04-14T00:04:21.240Z,31.90
2024-04-14T00:05:21.183Z,31.88
2024-04-14T00:06:21.184Z,31.91
2024-04-14T00:07:21.170Z,31.96
2024-04-14T00:08:21.194Z,31.99
2024-04-14T00:09:21.204Z,32.02
2024-04-14T00:10:21.209Z,32.03
2024-04-14T00:11:21.259Z,32.05
2024-04-14T00:12:21.276Z,32.09
2024-04-14T00:13:21.234Z,32.07
2024-04-14T00:14:21.252Z,32.09
2024-04-14T00:15:21.271Z,32.09
2024-04-14T00:16:21.284Z,32.10
2024-04-14T00:17:21.296Z,32.09
2024-04-14T00:18:21.377Z,32.10
2024-04-14T00:19:21.373Z,32.11
2024-04-14T00:20:21.358Z,32.09
2024-04-14T00:21:21.397Z,32.06
2024-04-14T00:22:21.359Z,32.01
2024-04-14T00:23:21.375Z,32.02
2024-04-14T00:24:21.389Z,32.07
2024-04-14T00:25:21.374Z,32.08
2024-04-14T00:26:21.387Z,32.07
2024-04-14T00:27:21.481Z,32.05
2024-04-14T00:28:21.421Z,32.02
2024-04-14T00:29:21.462Z,32.01
2024-04-14T00:30:21.472Z,31.99
2024-04-14T00:31:21.505Z,32.01
2024-04-14T00:32:21.521Z,32.01
2024-04-14T00:33:21.708Z,31.94
2024-04-14T00:34:21.535Z,31.89
2024-04-14T00:35:21.575Z,31.87
2024-04-14T00:36:21.593Z,31.87
2024-04-14T00:37:21.633Z,31.87
2024-04-14T00:38:21.625Z,31.92
2024-04-14T00:39:21.657Z,31.98
2024-04-14T00:40:21.655Z,31.96
2024-04-14T00:41:21.657Z,31.99
2024-04-14T00:42:21.732Z,32.03
2024-04-14T00:43:21.690Z,32.06
2024-04-14T00:44:21.708Z,32.09
2024-04-14T00:45:21.734Z,32.09
2024-04-14T00:46:21.732Z,32.09
2024-04-14T00:47:21.807Z,32.09
2024-04-14T00:48:21.852Z,32.09
2024-04-14T00:49:21.825Z,32.08
2024-04-14T00:50:21.786Z,32.09
2024-04-14T00:51:21.858Z,32.09
2024-04-14T00:52:21.811Z,32.08
2024-04-14T00:53:21.805Z,32.11
2024-04-14T00:54:21.862Z,32.09
2024-04-14T00:55:21.826Z,32.09
2024-04-14T00:56:21.851Z,32.10
2024-04-14T00:57:21.901Z,32.12
2024-04-14T00:58:21.866Z,32.10
2024-04-14T00:59:21.861Z,32.10
2024-04-14T01:00:21.885Z,32.12
2024-04-14T01:01:22.020Z,32.11
2024-04-14T01:02:21.906Z,32.11
2024-04-14T01:03:22.069Z,32.10
2024-04-14T01:04:21.962Z,32.12
2024-04-14T01:05:21.926Z,32.12
2024-04-14T01:06:21.940Z,32.09
2024-04-14T01:07:21.943Z,32.11
2024-04-14T01:08:21.969Z,32.14
2024-04-14T01:09:21.978Z,32.09
2024-04-14T01:10:22.014Z,32.01
2024-04-14T01:11:22.054Z,31.99
2024-04-14T01:12:22.113Z,32.01
2024-04-14T01:13:22.048Z,31.96
2024-04-14T01:14:22.049Z,32.01
2024-04-14T01:15:22.128Z,31.97
2024-04-14T01:16:22.086Z,31.96
2024-04-14T01:17:22.151Z,31.94
2024-04-14T01:18:22.166Z,31.93
2024-04-14T01:19:22.151Z,31.95
2024-04-14T01:20:22.144Z,31.94
2024-04-14T01:21:22.174Z,31.92
2024-04-14T01:22:22.175Z,31.94
2024-04-14T01:23:22.187Z,31.97
2024-04-14T01:24:22.239Z,31.99
2024-04-14T01:25:22.223Z,32.00
2024-04-14T01:26:22.224Z,32.04
2024-04-14T01:27:22.265Z,32.04
2024-04-14T01:28:22.283Z,32.02
2024-04-14T01:29:22.284Z,31.97
2024-04-14T01:30:22.339Z,31.94
2024-04-14T01:31:22.320Z,31.98
2024-04-14T01:32:22.406Z,32.03
2024-04-14T01:33:22.390Z,32.07
2024-04-14T01:34:22.390Z,32.04
2024-04-14T01:35:22.382Z,31.97
2024-04-14T01:36:22.418Z,31.92
2024-04-14T01:37:22.417Z,31.85
2024-04-14T01:38:26.318Z,31.82
2024-04-14T01:39:22.460Z,31.84
2024-04-14T01:40:22.420Z,31.88
2024-04-14T01:41:22.405Z,31.93
2024-04-14T01:42:22.402Z,31.93
2024-04-14T01:43:22.375Z,31.98
2024-04-14T01:44:22.360Z,32.03
2024-04-14T01:45:22.441Z,31.94
2024-04-14T01:46:22.340Z,31.88
2024-04-14T01:47:22.356Z,31.94
2024-04-14T01:48:22.347Z,32.00
2024-04-14T01:49:22.342Z,32.04
2024-04-14T01:50:22.296Z,32.04
2024-04-14T01:51:22.381Z,32.05
2024-04-14T01:52:24.914Z,32.07
2024-04-14T01:53:22.257Z,32.08
2024-04-14T01:54:22.278Z,32.11
2024-04-14T01:55:22.232Z,32.10
2024-04-14T01:56:22.236Z,32.10
2024-04-14T01:57:22.302Z,32.05
2024-04-14T01:58:22.204Z,32.05
2024-04-14T01:59:22.197Z,32.04
2024-04-14T02:00:22.366Z,32.08
2024-04-14T02:01:22.274Z,32.08
2024-04-14T02:02:22.159Z,32.09
2024-04-14T02:03:22.199Z,32.08
2024-04-14T02:04:22.188Z,32.13
2024-04-14T02:05:22.116Z,32.11
2024-04-14T02:06:22.155Z,32.13
2024-04-14T02:07:22.099Z,32.12
2024-04-14T02:08:22.073Z,32.09
2024-04-14T02:09:22.059Z,32.13
2024-04-14T02:10:22.043Z,32.14
2024-04-14T02:11:22.109Z,32.16
2024-04-14T02:12:22.054Z,32.10
2024-04-14T02:13:22.050Z,32.07
2024-04-14T02:14:22.019Z,32.07
2024-04-14T02:15:22.020Z,32.04
2024-04-14T02:16:21.991Z,32.05
2024-04-14T02:17:21.991Z,32.02
2024-04-14T02:18:22.042Z,31.99
2024-04-14T02:19:21.982Z,31.97
2024-04-14T02:20:21.955Z,31.96
2024-04-14T02:21:21.947Z,31.93
2024-04-14T02:22:21.936Z,31.92
2024-04-14T02:23:21.934Z,31.94
2024-04-14T02:24:21.941Z,31.91
2024-04-14T02:25:21.938Z,31.90
2024-04-14T02:26:21.899Z,31.93
2024-04-14T02:27:21.875Z,31.99
2024-04-14T02:28:21.876Z,32.04
2024-04-14T02:29:21.855Z,32.09
2024-04-14T02:30:21.931Z,32.10
2024-04-14T02:31:21.818Z,32.05
2024-04-14T02:32:21.842Z,32.04
2024-04-14T02:33:21.787Z,32.07
2024-04-14T02:34:21.775Z,32.09
2024-04-14T02:35:21.763Z,32.07
2024-04-14T02:36:21.819Z,32.10
2024-04-14T02:37:21.757Z,32.06
2024-04-14T02:38:21.736Z,32.01
2024-04-14T02:39:21.747Z,31.98
2024-04-14T02:40:21.712Z,32.01
2024-04-14T02:41:21.701Z,32.04
2024-04-14T02:42:21.704Z,32.05
2024-04-14T02:43:21.705Z,32.09
2024-04-14T02:44:21.675Z,32.10
2024-04-14T02:45:21.664Z,32.10
2024-04-14T02:46:21.689Z,32.11
2024-04-14T02:47:21.633Z,32.12
2024-04-14T02:48:21.708Z,32.13
2024-04-14T02:49:21.648Z,32.12
2024-04-14T02:50:21.607Z,32.15
2024-04-14T02:51:21.597Z,32.14
2024-04-14T02:52:21.580Z,32.11
2024-04-14T02:53:21.580Z,32.10
2024-04-14T02:54:21.554Z,32.14
2024-04-14T02:55:21.533Z,32.14
2024-04-14T02:56:21.523Z,32.13
2024-04-14T02:57:21.507Z,32.10
2024-04-14T02:58:21.509Z,32.11
2024-04-14T02:59:21.504Z,32.11
2024-04-14T03:00:21.460Z,32.14
2024-04-14T03:01:21.558Z,32.16
2024-04-14T03:02:21.430Z,32.16
2024-04-14T03:03:21.432Z,32.19
2024-04-14T03:04:25.678Z,32.16
2024-04-14T03:05:21.397Z,32.12
2024-04-14T03:06:21.379Z,32.13
2024-04-14T03:07:21.385Z,32.08
2024-04-14T03:08:21.375Z,31.98
2024-04-14T03:09:21.365Z,32.00
2024-04-14T03:10:21.347Z,32.06
2024-04-14T03:11:21.364Z,32.13
2024-04-14T03:12:21.355Z,32.15
2024-04-14T03:13:21.295Z,32.18
2024-04-14T03:14:21.267Z,32.12
2024-04-14T03:15:21.249Z,32.13
2024-04-14T03:16:21.267Z,32.12
2024-04-14T03:17:21.219Z,32.20
2024-04-14T03:18:21.256Z,32.19
2024-04-14T03:19:21.187Z,32.20
2024-04-14T03:20:21.166Z,32.22
2024-04-14T03:21:24.152Z,32.19
2024-04-14T03:22:21.129Z,32.17
2024-04-14T03:23:21.104Z,32.13
2024-04-14T03:24:21.089Z,32.08
2024-04-14T03:25:21.058Z,32.10
2024-04-14T03:26:21.064Z,32.11
2024-04-14T03:27:21.035Z,32.10
2024-04-14T03:28:21.031Z,32.11
2024-04-14T03:29:20.988Z,32.04
2024-04-14T03:30:20.971Z,31.96
2024-04-14T03:31:21.085Z,31.92
2024-04-14T03:32:20.934Z,31.87
2024-04-14T03:33:20.925Z,31.90
2024-04-14T03:34:20.928Z,31.97
2024-04-14T03:35:20.877Z,32.04
2024-04-14T03:36:20.855Z,32.06
2024-04-14T03:37:20.844Z,32.07
2024-04-14T03:38:20.816Z,32.11
2024-04-14T03:39:20.802Z,32.12
2024-04-14T03:40:20.770Z,32.09
2024-04-14T03:41:20.752Z,32.04
2024-04-14T03:42:20.733Z,32.02
2024-04-14T03:43:20.713Z,32.03
2024-04-14T03:44:20.697Z,32.08
2024-04-14T03:45:20.676Z,32.09
2024-04-14T03:46:20.667Z,32.12
2024-04-14T03:47:20.669Z,32.12
2024-04-14T03:48:20.763Z,32.09
2024-04-14T03:49:20.639Z,32.05
2024-04-14T03:50:20.613Z,32.11
2024-04-14T03:51:20.594Z,32.08
2024-04-14T03:52:20.569Z,32.06
2024-04-14T03:53:20.545Z,32.08
2024-04-14T03:54:20.544Z,32.00
2024-04-14T03:55:20.515Z,31.94
2024-04-14T03:56:20.519Z,31.93
2024-04-14T03:57:20.491Z,31.94
2024-04-14T03:58:20.477Z,31.97
2024-04-14T03:59:20.460Z,31.99
2024-04-14T04:00:20.442Z,31.91
2024-04-14T04:01:20.529Z,31.92
2024-04-14T04:02:20.445Z,31.98
2024-04-14T04:03:20.396Z,31.99
2024-04-14T04:04:20.510Z,31.93
2024-04-14T04:05:20.369Z,31.87
2024-04-14T04:06:20.351Z,31.85
2024-04-14T04:07:20.339Z,31.92
2024-04-14T04:08:20.319Z,32.01
2024-04-14T04:09:20.301Z,32.09
2024-04-14T04:10:20.299Z,32.07
2024-04-14T04:11:20.281Z,32.07
2024-04-14T04:12:20.262Z,32.10
2024-04-14T04:13:20.258Z,32.12
2024-04-14T04:14:20.230Z,32.04
2024-04-14T04:15:20.203Z,31.99
2024-04-14T04:16:20.188Z,32.02
2024-04-14T04:17:20.172Z,32.04
2024-04-14T04:18:20.210Z,32.02
2024-04-14T04:19:26.128Z,31.99
2024-04-14T04:20:21.136Z,31.98
2024-04-14T04:21:20.125Z,31.95
2024-04-14T04:22:20.108Z,31.92
2024-04-14T04:23:20.103Z,31.94
2024-04-14T04:24:23.626Z,32.00
2024-04-14T04:25:20.069Z,31.99
2024-04-14T04:26:20.077Z,31.94
2024-04-14T04:27:20.053Z,31.89
2024-04-14T04:28:20.026Z,31.87
2024-04-14T04:29:20.007Z,31.90
2024-04-14T04:30:20.020Z,31.94
2024-04-14T04:31:20.040Z,31.98
2024-04-14T04:32:20.006Z,32.00
2024-04-14T04:33:20.042Z,32.02
2024-04-14T04:34:19.989Z,31.97
2024-04-14T04:35:19.913Z,31.96
2024-04-14T04:36:20.864Z,31.96
2024-04-14T04:37:19.895Z,31.97
2024-04-14T04:38:19.881Z,31.94
2024-04-14T04:39:19.867Z,31.92
2024-04-14T04:40:19.871Z,31.88
2024-04-14T04:41:20.871Z,31.83
2024-04-14T04:42:19.890Z,31.81
2024-04-14T04:43:19.914Z,31.83
2024-04-14T04:44:19.940Z,31.86
2024-04-14T04:45:19.943Z,31.87
2024-04-14T04:46:19.952Z,31.93
2024-04-14T04:47:20.000Z,31.93
2024-04-14T04:48:20.120Z,31.95
2024-04-14T04:49:20.077Z,31.94
2024-04-14T04:50:20.034Z,31.94
2024-04-14T04:51:20.082Z,31.93
2024-04-14T04:52:20.065Z,31.90
2024-04-14T04:53:20.091Z,31.87
2024-04-14T04:54:27.495Z,31.90
2024-04-14T04:55:27.584Z,31.87
2024-04-14T04:56:27.475Z,31.86
2024-04-14T04:57:27.662Z,31.90
2024-04-14T04:58:27.526Z,31.93
2024-04-14T04:59:27.620Z,31.92
2024-04-14T05:00:27.657Z,31.94
2024-04-14T05:01:27.698Z,31.94
2024-04-14T05:02:27.620Z,31.90
2024-04-14T05:03:31.345Z,31.88
2024-04-14T05:04:28.695Z,31.88
2024-04-14T05:05:27.574Z,31.88
2024-04-14T05:06:27.632Z,31.87
2024-04-14T05:07:27.581Z,31.87
2024-04-14T05:08:27.599Z,31.88
2024-04-14T05:09:27.702Z,31.89
2024-04-14T05:10:30.407Z,31.89
2024-04-14T05:11:27.644Z,31.87
2024-04-14T05:12:27.645Z,31.89
2024-04-14T05:13:27.622Z,31.91
2024-04-14T05:14:27.627Z,31.93
2024-04-14T05:15:27.645Z,31.94
2024-04-14T05:16:27.657Z,31.90
2024-04-14T05:17:27.746Z,31.88
2024-04-14T05:18:27.759Z,31.91
2024-04-14T05:19:27.753Z,31.91
2024-04-14T05:20:28.533Z,31.93
2024-04-14T05:21:27.707Z,31.93
2024-04-14T05:22:27.749Z,31.91
2024-04-14T05:23:27.686Z,31.96
2024-04-14T05:24:27.712Z,31.96
2024-04-14T05:25:27.714Z,31.95
2024-04-14T05:26:27.736Z,31.97
2024-04-14T05:27:27.750Z,31.96
2024-04-14T05:28:27.775Z,31.97
2024-04-14T05:29:27.752Z,31.97
2024-04-14T05:30:27.759Z,31.93
2024-04-14T05:31:27.784Z,31.94
2024-04-14T05:32:27.820Z,31.96
2024-04-14T05:33:27.764Z,31.97
2024-04-14T05:34:27.792Z,31.99
2024-04-14T05:35:27.745Z,32.01
2024-04-14T05:36:27.816Z,31.99
2024-04-14T05:37:27.752Z,32.00
2024-04-14T05:38:27.751Z,32.02
2024-04-14T05:39:27.767Z,32.03
2024-04-14T05:40:27.772Z,32.02
2024-04-14T05:41:27.724Z,32.01
2024-04-14T05:42:27.780Z,31.98
2024-04-14T05:43:27.721Z,31.98
2024-04-14T05:44:27.729Z,32.00
2024-04-14T05:45:27.748Z,32.00
2024-04-14T05:46:27.707Z,32.01
2024-04-14T05:47:27.802Z,32.03
2024-04-14T05:48:27.801Z,32.05
2024-04-14T05:49:27.781Z,32.03
2024-04-14T05:50:27.701Z,32.03
2024-04-14T05:51:27.720Z,32.01
2024-04-14T05:52:27.717Z,32.02
2024-04-14T05:53:27.844Z,32.01
2024-04-14T05:54:27.744Z,31.98
2024-04-14T05:55:27.733Z,32.00
2024-04-14T05:56:27.719Z,32.00
2024-04-14T05:57:27.757Z,32.00
2024-04-14T05:58:27.719Z,32.02
2024-04-14T05:59:27.760Z,32.03
2024-04-14T06:00:27.819Z,32.05
2024-04-14T06:01:27.770Z,32.03
2024-04-14T06:02:27.758Z,32.05
2024-04-14T06:03:27.813Z,32.04
2024-04-14T06:04:27.863Z,32.06
2024-04-14T06:05:27.940Z,32.07
2024-04-14T06:06:27.822Z,32.07
2024-04-14T06:07:27.806Z,32.10
2024-04-14T06:08:27.863Z,32.07
2024-04-14T06:09:27.880Z,32.04
2024-04-14T06:10:27.908Z,32.02
2024-04-14T06:11:28.028Z,32.04
2024-04-14T06:12:27.963Z,32.04
2024-04-14T06:13:27.982Z,32.04
2024-04-14T06:14:28.022Z,32.04
2024-04-14T06:15:28.098Z,32.03
2024-04-14T06:16:28.165Z,32.01
2024-04-14T06:17:28.183Z,32.04
2024-04-14T06:18:28.190Z,32.05
2024-04-14T06:19:28.141Z,32.06
2024-04-14T06:20:28.188Z,32.04
2024-04-14T06:21:28.216Z,32.02
2024-04-14T06:22:28.388Z,32.04
2024-04-14T06:23:28.283Z,32.02
2024-04-14T06:24:28.312Z,32.00
2024-04-14T06:25:28.329Z,32.01
2024-04-14T06:26:28.340Z,31.98
2024-04-14T06:27:28.410Z,31.96
2024-04-14T06:28:28.507Z,31.95
2024-04-14T06:29:29.776Z,31.94
2024-04-14T06:30:28.461Z,31.87
2024-04-14T06:31:28.477Z,31.86
2024-04-14T06:32:28.576Z,31.81
2024-04-14T06:33:28.568Z,31.80
2024-04-14T06:34:28.801Z,31.78
2024-04-14T06:35:28.592Z,31.83
2024-04-14T06:36:28.684Z,31.82
2024-04-14T06:37:28.637Z,31.82
2024-04-14T06:38:28.677Z,31.83
2024-04-14T06:39:28.809Z,31.84
2024-04-14T06:40:28.728Z,31.85
2024-04-14T06:41:28.773Z,31.83
2024-04-14T06:42:28.819Z,31.82
2024-04-14T06:43:28.770Z,31.85
2024-04-14T06:44:28.800Z,31.86
2024-04-14T06:45:28.881Z,31.83
2024-04-14T06:46:28.867Z,31.84
2024-04-14T06:47:29.983Z,31.83
2024-04-14T06:48:29.085Z,31.85
2024-04-14T06:49:29.135Z,31.85
2024-04-14T06:50:29.126Z,31.85
2024-04-14T06:51:29.200Z,31.86
2024-04-14T06:52:29.408Z,31.88
2024-04-14T06:53:29.175Z,31.85
2024-04-14T06:54:29.203Z,31.88
2024-04-14T06:55:30.720Z,31.86
2024-04-14T06:56:29.207Z,31.88
2024-04-14T06:57:29.267Z,31.88
2024-04-14T06:58:29.194Z,31.88
2024-04-14T06:59:29.195Z,31.87
2024-04-14T07:00:29.270Z,31.86
2024-04-14T07:01:29.333Z,31.87
2024-04-14T07:02:29.190Z,31.87
2024-04-14T07:03:29.214Z,31.87
2024-04-14T07:04:29.404Z,31.88
2024-04-14T07:05:29.169Z,31.89
2024-04-14T07:06:29.191Z,31.90
2024-04-14T07:07:29.156Z,31.89
2024-04-14T07:08:29.139Z,31.89
2024-04-14T07:09:29.190Z,31.89
2024-04-14T07:10:29.297Z,31.90
2024-04-14T07:11:29.203Z,31.88
2024-04-14T07:12:29.160Z,31.88
2024-04-14T07:13:29.138Z,31.89
2024-04-14T07:14:29.155Z,31.88
2024-04-14T07:15:29.180Z,31.89
2024-04-14T07:16:29.184Z,31.89
2024-04-14T07:17:29.236Z,31.88
2024-04-14T07:18:29.193Z,31.90
2024-04-14T07:19:29.166Z,31.89
2024-04-14T07:20:29.156Z,31.89
2024-04-14T07:21:29.160Z,31.93
2024-04-14T07:22:29.162Z,31.92
2024-04-14T07:23:29.139Z,31.91
2024-04-14T07:24:29.251Z,31.92
2024-04-14T07:25:29.215Z,31.94
2024-04-14T07:26:29.310Z,31.90
2024-04-14T07:27:29.170Z,31.92
2024-04-14T07:28:29.164Z,31.92
2024-04-14T07:29:29.188Z,31.93
2024-04-14T07:30:29.207Z,31.93
2024-04-14T07:31:29.156Z,31.95
2024-04-14T07:32:29.257Z,31.94
2024-04-14T07:33:29.244Z,31.92
2024-04-14T07:34:29.162Z,31.91
2024-04-14T07:35:29.299Z,31.91
2024-04-14T07:36:29.191Z,31.93
2024-04-14T07:37:29.162Z,31.92
2024-04-14T07:38:29.174Z,31.92
2024-04-14T07:39:29.200Z,31.95
2024-04-14T07:40:29.166Z,31.93
2024-04-14T07:41:29.193Z,31.95
2024-04-14T07:42:29.179Z,31.95
2024-04-14T07:43:29.178Z,31.94
2024-04-14T07:44:29.147Z,31.95
2024-04-14T07:45:29.223Z,31.95
2024-04-14T07:46:29.156Z,31.95
2024-04-14T07:47:29.219Z,31.96
2024-04-14T07:48:29.353Z,31.96
2024-04-14T07:49:29.176Z,31.97
2024-04-14T07:50:29.201Z,31.94
2024-04-14T07:51:29.215Z,31.97
2024-04-14T07:52:29.202Z,31.95
2024-04-14T07:53:29.213Z,31.94
2024-04-14T07:54:29.284Z,31.94
2024-04-14T07:55:29.228Z,31.95
2024-04-14T07:56:29.228Z,31.94
2024-04-14T07:57:29.244Z,31.94
2024-04-14T07:58:29.285Z,31.96
2024-04-14T07:59:29.254Z,31.97
2024-04-14T08:00:29.438Z,31.96
2024-04-14T08:01:29.474Z,31.97
2024-04-14T08:02:29.273Z,31.96
2024-04-14T08:03:37.137Z,31.96
2024-04-14T08:04:30.474Z,31.97
2024-04-14T08:05:29.687Z,31.99
2024-04-14T08:06:29.385Z,31.95
2024-04-14T08:07:29.322Z,31.95
2024-04-14T08:08:29.319Z,31.95
2024-04-14T08:09:29.360Z,31.95
2024-04-14T08:10:29.347Z,31.94
2024-04-14T08:11:29.401Z,31.93
2024-04-14T08:12:29.453Z,31.95
2024-04-14T08:13:29.369Z,31.97
2024-04-14T08:14:29.384Z,31.96
2024-04-14T08:15:29.464Z,32.00
2024-04-14T08:16:29.490Z,31.99
2024-04-14T08:17:29.534Z,31.97
2024-04-14T08:18:29.699Z,31.96
2024-04-14T08:19:29.651Z,31.96
2024-04-14T08:20:29.714Z,31.96
2024-04-14T08:21:29.862Z,31.98
2024-04-14T08:22:29.856Z,31.97
2024-04-14T08:23:29.888Z,31.97
2024-04-14T08:24:30.037Z,31.96
2024-04-14T08:25:30.036Z,31.97
2024-04-14T08:26:30.062Z,31.99
2024-04-14T08:27:30.171Z,31.96
2024-04-14T08:28:30.160Z,31.96
2024-04-14T08:29:30.228Z,31.97
2024-04-14T08:30:30.423Z,31.99
2024-04-14T08:31:30.352Z,31.99
2024-04-14T08:32:30.408Z,32.00
2024-04-14T08:33:30.518Z,32.00
2024-04-14T08:34:30.591Z,32.00
2024-04-14T08:35:30.576Z,31.99
2024-04-14T08:36:30.821Z,31.98
2024-04-14T08:37:30.717Z,32.00
2024-04-14T08:38:30.794Z,32.02
2024-04-14T08:39:30.972Z,32.02
2024-04-14T08:40:30.893Z,31.99
2024-04-14T08:41:30.903Z,32.01
2024-04-14T08:42:31.166Z,32.01
2024-04-14T08:43:31.003Z,31.97
2024-04-14T08:44:31.059Z,31.99
2024-04-14T08:45:31.181Z,31.99
2024-04-14T08:46:31.220Z,32.01
2024-04-14T08:47:31.270Z,32.01
2024-04-14T08:48:31.388Z,32.01
2024-04-14T08:49:31.299Z,32.02
2024-04-14T08:50:31.347Z,32.02
2024-04-14T08:51:31.420Z,32.03
2024-04-14T08:52:31.466Z,32.00
2024-04-14T08:53:31.506Z,32.03
2024-04-14T08:54:31.749Z,32.01
2024-04-14T08:55:31.612Z,32.00
2024-04-14T08:56:31.670Z,32.02
2024-04-14T08:57:31.734Z,32.04
2024-04-14T08:58:31.770Z,32.03
2024-04-14T08:59:31.779Z,32.04
2024-04-14T09:00:31.847Z,32.05
2024-04-14T09:01:32.049Z,32.06
2024-04-14T09:02:32.036Z,32.05
2024-04-14T09:03:32.086Z,32.09
2024-04-14T09:04:32.109Z,32.06
2024-04-14T09:05:35.643Z,32.06
2024-04-14T09:06:33.072Z,32.06
2024-04-14T09:07:32.085Z,32.08
2024-04-14T09:08:32.044Z,32.03
2024-04-14T09:09:32.095Z,32.06
2024-04-14T09:10:32.064Z,32.06
2024-04-14T09:11:32.037Z,32.06
2024-04-14T09:12:32.123Z,32.07
2024-04-14T09:13:32.123Z,32.07
2024-04-14T09:14:32.090Z,32.08
2024-04-14T09:15:32.186Z,32.07
2024-04-14T09:16:32.288Z,32.09
2024-04-14T09:17:32.239Z,32.07
2024-04-14T09:18:32.294Z,32.11
2024-04-14T09:19:32.310Z,32.10
2024-04-14T09:20:32.367Z,32.13
2024-04-14T09:21:32.428Z,32.11
2024-04-14T09:22:32.417Z,32.09
2024-04-14T09:23:32.490Z,32.11
2024-04-14T09:24:32.529Z,32.11
2024-04-14T09:25:32.560Z,32.10
2024-04-14T09:26:32.774Z,32.12
2024-04-14T09:27:32.658Z,32.12
2024-04-14T09:28:32.693Z,32.11
2024-04-14T09:29:32.718Z,32.16
2024-04-14T09:30:32.831Z,32.14
2024-04-14T09:31:32.848Z,32.11
2024-04-14T09:32:33.028Z,32.12
2024-04-14T09:33:32.988Z,32.13
2024-04-14T09:34:32.961Z,32.13
2024-04-14T09:35:33.020Z,32.15
2024-04-14T09:36:33.101Z,32.13
2024-04-14T09:37:33.122Z,32.15
2024-04-14T09:38:33.225Z,32.13
2024-04-14T09:39:33.226Z,32.19
2024-04-14T09:40:33.300Z,32.17
2024-04-14T09:41:33.282Z,32.13
2024-04-14T09:42:33.354Z,32.18
2024-04-14T09:43:33.375Z,32.20
2024-04-14T09:44:33.495Z,32.20
2024-04-14T09:45:33.519Z,32.18
2024-04-14T09:46:33.530Z,32.21
2024-04-14T09:47:33.619Z,32.21
2024-04-14T09:48:33.665Z,32.24
2024-04-14T09:49:33.639Z,32.22
2024-04-14T09:50:33.677Z,32.22
2024-04-14T09:51:33.685Z,32.22
2024-04-14T09:52:33.708Z,32.22
2024-04-14T09:53:33.751Z,32.22
2024-04-14T09:54:33.805Z,32.23
2024-04-14T09:55:35.538Z,32.22
2024-04-14T09:56:33.872Z,32.24
2024-04-14T09:57:33.782Z,32.24
2024-04-14T09:58:33.743Z,32.25
2024-04-14T09:59:33.757Z,32.25
2024-04-14T10:00:33.786Z,32.24
2024-04-14T10:01:33.863Z,32.25
2024-04-14T10:02:33.889Z,32.26
2024-04-14T10:03:33.790Z,32.26
2024-04-14T10:04:33.750Z,32.26
2024-04-14T10:05:33.686Z,32.28
2024-04-14T10:06:33.704Z,32.24
2024-04-14T10:07:33.648Z,32.25
2024-04-14T10:08:33.645Z,32.26
2024-04-14T10:09:34.316Z,32.25
2024-04-14T10:10:33.638Z,32.25
2024-04-14T10:11:33.600Z,32.23
2024-04-14T10:12:33.640Z,32.24
2024-04-14T10:13:33.594Z,32.25
2024-04-14T10:14:33.587Z,32.24
2024-04-14T10:15:33.643Z,32.26
2024-04-14T10:16:33.611Z,32.25
2024-04-14T10:17:33.593Z,32.25
2024-04-14T10:18:33.562Z,32.23
2024-04-14T10:19:33.541Z,32.23
2024-04-14T10:20:33.532Z,32.25
2024-04-14T10:21:33.627Z,32.25
2024-04-14T10:22:33.518Z,32.25
2024-04-14T10:23:33.546Z,32.25
2024-04-14T10:24:33.530Z,32.25
2024-04-14T10:25:33.505Z,32.25
2024-04-14T10:26:33.465Z,32.24
2024-04-14T10:27:33.584Z,32.24
2024-04-14T10:28:33.445Z,32.24
2024-04-14T10:29:33.437Z,32.23
2024-04-14T10:30:33.458Z,32.25
2024-04-14T10:31:33.400Z,32.23
2024-04-14T10:32:33.401Z,32.24
2024-04-14T10:33:33.658Z,32.25
2024-04-14T10:34:33.469Z,32.25
2024-04-14T10:35:33.356Z,32.25
2024-04-14T10:36:33.387Z,32.24
2024-04-14T10:37:33.360Z,32.23
2024-04-14T10:38:33.458Z,32.23
2024-04-14T10:39:33.540Z,32.24
2024-04-14T10:40:33.351Z,32.23
2024-04-14T10:41:33.325Z,32.24
2024-04-14T10:42:33.333Z,32.24
2024-04-14T10:43:33.311Z,32.25
2024-04-14T10:44:33.323Z,32.25
2024-04-14T10:45:33.358Z,32.26
2024-04-14T10:46:33.337Z,32.27
2024-04-14T10:47:33.329Z,32.26
2024-04-14T10:48:33.465Z,32.27
2024-04-14T10:49:33.294Z,32.25
2024-04-14T10:50:33.252Z,32.23
2024-04-14T10:51:33.332Z,32.24
2024-04-14T10:52:33.244Z,32.25
2024-04-14T10:53:33.246Z,32.26
2024-04-14T10:54:33.310Z,32.25
2024-04-14T10:55:33.318Z,32.26
2024-04-14T10:56:33.337Z,32.25
2024-04-14T10:57:33.474Z,32.24
2024-04-14T10:58:33.407Z,32.26
2024-04-14T10:59:33.461Z,32.25
2024-04-14T11:00:33.499Z,32.25
2024-04-14T11:01:33.588Z,32.28
2024-04-14T11:02:33.616Z,32.26
2024-04-14T11:03:33.905Z,32.27
2024-04-14T11:04:33.694Z,32.27
2024-04-14T11:05:33.648Z,32.27
2024-04-14T11:06:33.706Z,32.27
2024-04-14T11:07:33.714Z,32.28
2024-04-14T11:08:33.778Z,32.29
2024-04-14T11:09:34.424Z,32.28
2024-04-14T11:10:33.878Z,32.27
2024-04-14T11:11:33.965Z,32.30
2024-04-14T11:12:34.033Z,32.29
2024-04-14T11:13:34.070Z,32.30
2024-04-14T11:14:34.137Z,32.29
2024-04-14T11:15:34.299Z,32.30
2024-04-14T11:16:34.317Z,32.27
2024-04-14T11:17:34.301Z,32.31
2024-04-14T11:18:34.364Z,32.28
2024-04-14T11:19:34.400Z,32.29
2024-04-14T11:20:34.457Z,32.31
2024-04-14T11:21:34.588Z,32.28
2024-04-14T11:22:34.587Z,32.29
2024-04-14T11:23:34.676Z,32.28
2024-04-14T11:24:34.719Z,32.28
2024-04-14T11:25:34.787Z,32.27
2024-04-14T11:26:34.823Z,32.28
2024-04-14T11:27:34.960Z,32.27
2024-04-14T11:28:34.971Z,32.27
2024-04-14T11:29:35.017Z,32.27
2024-04-14T11:30:35.117Z,32.26
2024-04-14T11:31:35.152Z,32.25
2024-04-14T11:32:35.763Z,32.29
2024-04-14T11:33:35.410Z,32.25
2024-04-14T11:34:35.385Z,32.26
2024-04-14T11:35:35.394Z,32.27
2024-04-14T11:36:35.566Z,32.26
2024-04-14T11:37:37.279Z,32.27
2024-04-14T11:38:35.538Z,32.25
2024-04-14T11:39:35.698Z,32.28
2024-04-14T11:40:35.650Z,32.25
2024-04-14T11:41:35.740Z,32.27
2024-04-14T11:42:35.819Z,32.25
2024-04-14T11:43:35.830Z,32.24
2024-04-14T11:44:35.846Z,32.23
2024-04-14T11:45:36.122Z,32.22
2024-04-14T11:46:35.967Z,32.20
2024-04-14T11:47:36.127Z,32.23
2024-04-14T11:48:36.108Z,32.19
2024-04-14T11:49:36.113Z,32.18
2024-04-14T11:50:36.197Z,32.16
2024-04-14T11:51:36.401Z,32.16
2024-04-14T11:52:36.245Z,32.18
2024-04-14T11:53:36.300Z,32.15
2024-04-14T11:54:36.394Z,32.16
2024-04-14T11:55:36.389Z,32.14
2024-04-14T11:56:36.435Z,32.17
2024-04-14T11:57:36.648Z,32.16
2024-04-14T11:58:36.557Z,32.15
2024-04-14T11:59:36.615Z,32.15
2024-04-14T12:00:36.807Z,32.16
2024-04-14T12:01:36.781Z,32.18
2024-04-14T12:02:36.718Z,32.18
2024-04-14T12:03:36.824Z,32.15
2024-04-14T12:04:36.962Z,32.16
2024-04-14T12:05:36.835Z,32.15
2024-04-14T12:06:36.879Z,32.14
2024-04-14T12:07:36.892Z,32.15
2024-04-14T12:08:36.936Z,32.17
2024-04-14T12:09:36.953Z,32.15
2024-04-14T12:10:37.026Z,32.16
2024-04-14T12:11:37.040Z,32.15
2024-04-14T12:12:37.157Z,32.14
2024-04-14T12:13:37.107Z,32.12
2024-04-14T12:14:37.140Z,32.14
2024-04-14T12:15:37.233Z,32.14
2024-04-14T12:16:37.287Z,32.14
2024-04-14T12:17:37.307Z,32.14
2024-04-14T12:18:37.359Z,32.13
2024-04-14T12:19:37.753Z,32.15
2024-04-14T12:20:37.368Z,32.12
2024-04-14T12:21:37.530Z,32.11
2024-04-14T12:22:37.614Z,32.11
2024-04-14T12:23:37.460Z,32.11
2024-04-14T12:24:37.532Z,32.11
2024-04-14T12:25:37.552Z,32.10
2024-04-14T12:26:37.585Z,32.09
2024-04-14T12:27:37.743Z,32.09
2024-04-14T12:28:37.624Z,32.07
2024-04-14T12:29:37.631Z,32.07
2024-04-14T12:31:37.740Z,32.04
2024-04-14T12:32:37.742Z,32.05
2024-04-14T12:33:37.984Z,32.02
2024-04-14T12:34:37.819Z,32.04
2024-04-14T12:35:37.837Z,32.04
2024-04-14T12:36:37.849Z,32.00
2024-04-14T12:37:37.882Z,31.98
2024-04-14T12:38:37.892Z,32.02
2024-04-14T12:39:37.967Z,32.00
2024-04-14T12:40:37.960Z,31.97
2024-04-14T12:41:38.000Z,31.98
2024-04-14T12:42:38.056Z,31.98
2024-04-14T12:43:38.076Z,31.96
2024-04-14T12:44:38.133Z,31.96
2024-04-14T12:45:38.282Z,31.95
2024-04-14T12:46:38.283Z,31.96
2024-04-14T12:47:38.263Z,31.96
2024-04-14T12:48:38.344Z,31.97
2024-04-14T12:49:38.320Z,31.97
2024-04-14T12:50:44.295Z,31.95
2024-04-14T12:51:39.406Z,31.94
2024-04-14T12:52:38.343Z,31.95
2024-04-14T12:53:38.359Z,31.92